Time;durP1;ratioP1;P1;durP2;ratioP2;P2;SDS_P1;SDS_P2;PMS_P1;PMS_P2;Temp;Humidity;BMP_temperature;BMP_pressure;BME280_temperature;BME280_humidity;BME280_pressure;Samples;Min_cycle;Max_cycle;Signal;HPM_P1;HPM_P2
2022/12/30 00:00:36;;;;;;;10.13;1.60;;;11.10;99.90;;;;;;5037130;28;20620;-68
2022/12/30 00:03:02;;;;;;;17.63;2.65;;;11.00;99.90;;;;;;5030671;28;20028;-67
2022/12/30 00:05:27;;;;;;;20.33;2.22;;;11.00;99.90;;;;;;5031244;28;20022;-68
2022/12/30 00:07:53;;;;;;;18.20;2.70;;;10.90;99.90;;;;;;5030505;28;20025;-68
2022/12/30 00:10:19;;;;;;;29.20;3.08;;;10.80;99.90;;;;;;5031073;28;20025;-68
2022/12/30 00:35:09;;;;;;;13.70;3.00;;;11.10;99.90;;;;;;5034886;28;20041;-68
2022/12/30 00:37:35;;;;;;;15.30;1.88;;;11.10;99.90;;;;;;5034625;28;20036;-69
2022/12/30 00:40:00;;;;;;;14.05;3.35;;;11.10;99.90;;;;;;5034586;28;20050;-69
2022/12/30 00:45:10;;;;;;;25.05;2.70;;;11.20;99.90;;;;;;5034727;28;20436;-67
2022/12/30 00:47:36;;;;;;;18.77;2.35;;;11.30;99.90;;;;;;5037764;28;20037;-68
2022/12/30 00:58:15;;;;;;;21.00;4.13;;;11.00;99.90;;;;;;5039513;28;20123;-69
2022/12/30 01:00:41;;;;;;;18.85;3.55;;;11.00;99.90;;;;;;5034760;28;20025;-67
2022/12/30 01:03:06;;;;;;;21.70;2.65;;;11.10;99.90;;;;;;5034165;28;20112;-68
2022/12/30 01:05:32;;;;;;;20.00;2.88;;;11.10;99.90;;;;;;5034071;28;20021;-68
2022/12/30 01:07:58;;;;;;;22.13;2.75;;;11.10;99.90;;;;;;5033954;28;20029;-68
2022/12/30 01:10:23;;;;;;;19.10;2.58;;;11.10;99.90;;;;;;5033011;28;20482;-68
2022/12/30 01:12:49;;;;;;;21.58;2.45;;;11.10;99.90;;;;;;5034174;28;20029;-69
2022/12/30 01:15:15;;;;;;;15.90;2.03;;;11.10;99.90;;;;;;5034101;28;20267;-67
2022/12/30 01:17:40;;;;;;;14.18;5.55;;;11.10;99.90;;;;;;5034256;28;20124;-67
2022/12/30 01:20:07;;;;;;;16.50;2.47;;;11.00;99.90;;;;;;5034393;28;20104;-68
2022/12/30 01:22:32;;;;;;;21.30;2.72;;;11.10;99.90;;;;;;5034794;28;20029;-68
2022/12/30 01:24:58;;;;;;;20.45;2.45;;;11.10;99.90;;;;;;5032348;28;20028;-68
2022/12/30 01:27:24;;;;;;;27.63;3.60;;;11.00;99.90;;;;;;5032395;28;20505;-68
2022/12/30 01:29:50;;;;;;;33.47;3.67;;;11.00;99.90;;;;;;5033404;28;20021;-68
2022/12/30 01:32:18;;;;;;;22.23;3.35;;;11.00;99.90;;;;;;5033232;28;20104;-68
2022/12/30 01:34:45;;;;;;;20.23;2.40;;;11.00;99.90;;;;;;5033382;28;20463;-69
2022/12/30 01:37:11;;;;;;;21.58;2.70;;;11.00;99.90;;;;;;5033115;28;20045;-68
2022/12/30 01:39:36;;;;;;;20.77;3.20;;;11.00;99.90;;;;;;5033319;28;20049;-68
2022/12/30 01:42:03;;;;;;;30.45;3.47;;;11.10;99.90;;;;;;5033090;28;20462;-69
2022/12/30 01:44:50;;;;;;;23.27;2.80;;;11.00;99.90;;;;;;5033266;28;20032;-68
2022/12/30 01:47:41;;;;;;;12.85;1.65;;;11.00;99.90;;;;;;5033206;28;20021;-68
2022/12/30 01:50:09;;;;;;;28.17;3.25;;;10.90;99.90;;;;;;5033096;28;20029;-67
2022/12/30 01:52:37;;;;;;;14.05;2.42;;;10.80;99.90;;;;;;5033070;28;20393;-68
2022/12/30 01:55:10;;;;;;;21.40;3.17;;;10.80;99.90;;;;;;5032754;28;20374;-68
2022/12/30 01:57:38;;;;;;;22.50;3.38;;;10.90;99.90;;;;;;5032988;28;20037;-68
2022/12/30 02:00:04;;;;;;;15.18;2.88;;;10.80;99.90;;;;;;5032683;28;20444;-68
2022/12/30 02:02:31;;;;;;;17.02;2.97;;;10.80;99.90;;;;;;5032675;28;20030;-68
2022/12/30 02:04:58;;;;;;;12.32;3.60;;;10.80;99.90;;;;;;5032697;28;20049;-67
2022/12/30 02:07:30;;;;;;;22.98;4.68;;;10.80;99.90;;;;;;5032607;28;20504;-67
2022/12/30 02:09:57;;;;;;;15.63;3.70;;;10.80;99.90;;;;;;5032669;28;20571;-67
2022/12/30 02:12:22;;;;;;;19.27;3.15;;;10.80;99.90;;;;;;5032374;28;20466;-67
2022/12/30 02:14:49;;;;;;;30.10;3.38;;;10.80;99.90;;;;;;5032671;28;20037;-67
2022/12/30 02:17:30;;;;;;;17.73;3.00;;;10.80;99.90;;;;;;5032428;28;20086;-68
2022/12/30 02:20:35;;;;;;;11.90;3.25;;;10.80;99.90;;;;;;5032419;28;20068;-68
2022/12/30 02:23:11;;;;;;;22.33;3.13;;;10.80;99.90;;;;;;5032300;28;20104;-67
2022/12/30 02:25:43;;;;;;;14.25;2.60;;;10.80;99.90;;;;;;5032404;28;20330;-68
2022/12/30 02:28:20;;;;;;;25.80;3.53;;;10.80;99.90;;;;;;5032387;28;20056;-67
2022/12/30 02:31:11;;;;;;;25.88;2.92;;;10.90;99.90;;;;;;5032223;28;20034;-67
2022/12/30 02:33:55;;;;;;;17.77;1.92;;;10.90;69.60;;;;;;5032108;28;20254;-68
2022/12/30 02:36:46;;;;;;;22.15;2.00;;;11.00;1.00;;;;;;5031215;28;20482;-67
2022/12/30 02:39:28;;;;;;;22.75;3.75;;;10.90;1.00;;;;;;5040397;28;20033;-68
2022/12/30 02:45:08;;;;;;;17.60;2.40;;;10.90;1.00;;;;;;5031966;28;20276;-68
2022/12/30 02:47:40;;;;;;;18.63;2.15;;;10.90;1.00;;;;;;5031770;28;20505;-67
2022/12/30 02:52:57;;;;;;;19.83;3.00;;;10.90;1.00;;;;;;5032149;28;20075;-68
2022/12/30 02:55:23;;;;;;;21.98;2.50;;;10.90;1.00;;;;;;5031563;28;20075;-68
2022/12/30 02:57:49;;;;;;;12.95;2.78;;;10.90;1.00;;;;;;5031584;28;20030;-68
2022/12/30 03:06:37;;;;;;;20.83;3.00;;;10.90;1.00;;;;;;5031534;28;20501;-69
2022/12/30 03:09:11;;;;;;;16.08;2.45;;;10.90;1.00;;;;;;5031532;28;20052;-67
2022/12/30 03:11:52;;;;;;;18.60;2.83;;;10.90;99.90;;;;;;5031927;28;20033;-67
2022/12/30 03:14:48;;;;;;;9.40;1.75;;;10.90;99.90;;;;;;5031361;28;20126;-67
2022/12/30 03:17:44;;;;;;;18.83;2.10;;;11.00;99.90;;;;;;5031140;28;20029;-68
2022/12/30 03:20:14;;;;;;;11.00;1.83;;;11.00;99.90;;;;;;5031969;28;20091;-68
2022/12/30 03:28:15;;;;;;;7.43;1.75;;;10.90;99.90;;;;;;5031775;28;20032;-67
2022/12/30 03:30:49;;;;;;;15.30;2.15;;;11.00;99.90;;;;;;5030993;28;20065;-68
2022/12/30 03:33:16;;;;;;;18.10;2.03;;;11.00;99.90;;;;;;5031177;28;20051;-68
2022/12/30 03:35:49;;;;;;;27.15;3.15;;;11.00;99.90;;;;;;5031162;28;20083;-67
2022/12/30 03:38:18;;;;;;;12.95;1.73;;;11.00;99.90;;;;;;5031595;28;20025;-67
2022/12/30 03:40:46;;;;;;;17.38;1.88;;;11.00;99.90;;;;;;5033372;28;20049;-68
2022/12/30 03:43:12;;;;;;;12.45;2.00;;;11.00;99.90;;;;;;5032229;28;20033;-68
2022/12/30 03:45:39;;;;;;;13.80;1.83;;;10.90;99.90;;;;;;5031496;28;20033;-67
2022/12/30 03:48:04;;;;;;;11.57;2.20;;;10.90;99.90;;;;;;5035129;28;20079;-67
2022/12/30 03:50:30;;;;;;;12.18;1.40;;;10.90;99.90;;;;;;5038537;28;20092;-68
2022/12/30 03:52:56;;;;;;;16.40;2.00;;;10.90;99.90;;;;;;5040912;28;20095;-68
2022/12/30 03:55:21;;;;;;;10.77;1.70;;;10.80;99.90;;;;;;5037416;28;20505;-67
2022/12/30 03:57:47;;;;;;;20.70;2.17;;;10.80;99.90;;;;;;5037473;28;20052;-67
2022/12/30 04:00:13;;;;;;;21.92;3.00;;;10.70;99.90;;;;;;5037384;28;20033;-67
2022/12/30 04:02:39;;;;;;;14.30;2.13;;;10.70;99.90;;;;;;5037479;28;20029;-67
2022/12/30 04:05:06;;;;;;;18.33;3.53;;;10.70;1.00;;;;;;5037375;28;20018;-68
2022/12/30 04:07:32;;;;;;;17.38;2.40;;;10.60;99.90;;;;;;5047482;28;20171;-67
2022/12/30 04:09:57;;;;;;;13.88;2.80;;;10.60;99.90;;;;;;5037577;28;20108;-67
2022/12/30 04:12:23;;;;;;;15.70;2.17;;;10.60;1.00;;;;;;5044130;28;20044;-67
2022/12/30 04:14:49;;;;;;;25.98;3.40;;;10.50;92.00;;;;;;5056668;28;20063;-67
2022/12/30 04:17:14;;;;;;;16.15;2.10;;;10.60;70.40;;;;;;5057448;28;20033;-67
2022/12/30 04:19:40;;;;;;;16.55;2.20;;;10.60;59.60;;;;;;5056205;28;20021;-67
2022/12/30 04:22:06;;;;;;;17.52;2.90;;;10.50;45.70;;;;;;5040042;28;20032;-68
2022/12/30 04:24:31;;;;;;;14.50;2.85;;;10.50;55.60;;;;;;5048384;28;20080;-68
2022/12/30 04:26:57;;;;;;;20.05;4.47;;;10.50;93.00;;;;;;5057470;28;20021;-67
2022/12/30 04:29:23;;;;;;;14.88;2.00;;;10.40;80.30;;;;;;5039686;28;20056;-68
2022/12/30 04:31:48;;;;;;;15.15;2.20;;;10.40;25.90;;;;;;5037805;28;20056;-68
2022/12/30 04:34:14;;;;;;;14.73;2.20;;;10.40;1.00;;;;;;5037226;28;20437;-68
2022/12/30 04:36:41;;;;;;;16.50;2.45;;;10.40;1.00;;;;;;5036113;28;20038;-68
2022/12/30 04:39:07;;;;;;;14.45;3.05;;;10.40;1.00;;;;;;5037394;28;20532;-68
2022/12/30 04:41:33;;;;;;;21.52;3.50;;;10.40;26.60;;;;;;5036994;28;20053;-68
2022/12/30 04:44:01;;;;;;;21.67;2.83;;;10.40;99.90;;;;;;5041656;28;20029;-67
2022/12/30 04:46:28;;;;;;;11.77;2.13;;;10.40;66.00;;;;;;5044241;28;20026;-67
2022/12/30 04:48:54;;;;;;;19.70;2.58;;;10.40;17.40;;;;;;5040171;28;20103;-67
2022/12/30 04:51:19;;;;;;;18.70;2.33;;;10.40;68.70;;;;;;5036315;28;20125;-67
2022/12/30 04:53:45;;;;;;;17.65;2.92;;;10.50;99.90;;;;;;5037142;28;20025;-65
2022/12/30 04:56:12;;;;;;;18.90;2.70;;;10.50;99.90;;;;;;5037171;28;20056;-67
2022/12/30 04:58:37;;;;;;;15.15;3.20;;;10.50;99.90;;;;;;5037094;28;20075;-66
2022/12/30 05:01:03;;;;;;;18.52;2.97;;;10.50;99.90;;;;;;5032997;28;20021;-67
2022/12/30 05:03:29;;;;;;;21.35;2.97;;;10.60;99.90;;;;;;5053787;28;20029;-68
2022/12/30 05:05:55;;;;;;;24.95;3.10;;;10.70;99.90;;;;;;5050576;28;20040;-67
2022/12/30 05:08:21;;;;;;;27.70;3.13;;;10.80;99.90;;;;;;5034162;28;20047;-66
2022/12/30 05:10:46;;;;;;;24.70;4.45;;;10.80;99.90;;;;;;5034207;28;20033;-67
2022/12/30 05:13:12;;;;;;;28.77;3.45;;;10.90;99.90;;;;;;5034595;28;20028;-68
2022/12/30 05:15:38;;;;;;;19.27;3.42;;;10.90;99.90;;;;;;5037104;28;20045;-67
2022/12/30 05:18:03;;;;;;;12.07;2.40;;;11.00;99.90;;;;;;5047739;28;20056;-67
2022/12/30 05:20:29;;;;;;;22.33;3.30;;;11.00;99.90;;;;;;5052953;28;20064;-66
2022/12/30 05:22:55;;;;;;;18.17;4.07;;;11.00;99.90;;;;;;5034397;28;20026;-67
2022/12/30 05:28:04;;;;;;;24.58;2.83;;;11.10;99.90;;;;;;5046734;28;20401;-67
2022/12/30 05:30:30;;;;;;;15.80;2.67;;;11.10;99.90;;;;;;5051718;28;20029;-68
2022/12/30 05:32:56;;;;;;;15.65;2.78;;;11.10;99.90;;;;;;5053260;28;20507;-68
2022/12/30 05:35:21;;;;;;;23.98;4.28;;;11.10;99.90;;;;;;5053054;28;20021;-68
2022/12/30 05:37:47;;;;;;;23.17;3.08;;;11.20;99.90;;;;;;5053185;28;20488;-67
2022/12/30 05:40:14;;;;;;;22.75;3.13;;;11.20;99.90;;;;;;5053254;28;20045;-67
2022/12/30 05:42:39;;;;;;;20.45;2.92;;;11.20;99.90;;;;;;5053059;28;20074;-68
2022/12/30 05:45:06;;;;;;;17.38;3.45;;;11.20;99.90;;;;;;5052966;28;20025;-67
2022/12/30 05:47:31;;;;;;;16.98;2.33;;;11.20;99.90;;;;;;5053068;28;20035;-68
2022/12/30 05:49:57;;;;;;;19.48;2.38;;;11.20;99.90;;;;;;5052927;28;20030;-68
2022/12/30 05:52:23;;;;;;;15.73;2.35;;;11.10;99.90;;;;;;5052896;28;20128;-68
2022/12/30 05:54:49;;;;;;;17.73;2.67;;;11.20;99.90;;;;;;5052900;28;20036;-67
2022/12/30 05:57:15;;;;;;;27.20;3.22;;;11.20;99.90;;;;;;5051320;28;20044;-68
2022/12/30 05:59:40;;;;;;;20.90;2.40;;;11.20;99.90;;;;;;5051370;28;20060;-68
2022/12/30 06:02:06;;;;;;;19.58;3.13;;;11.20;99.90;;;;;;5052694;28;20051;-67
2022/12/30 06:04:32;;;;;;;19.15;2.85;;;11.20;99.90;;;;;;5052726;28;20058;-67
2022/12/30 06:06:57;;;;;;;25.52;3.03;;;11.20;99.90;;;;;;5052766;28;20025;-67
2022/12/30 06:09:23;;;;;;;24.23;1.98;;;11.20;99.90;;;;;;5052574;28;20022;-68
2022/12/30 06:11:49;;;;;;;19.10;2.47;;;11.20;99.90;;;;;;5051414;28;20635;-67
2022/12/30 06:14:17;;;;;;;21.63;3.08;;;11.20;99.90;;;;;;5052377;28;20477;-68
2022/12/30 06:16:43;;;;;;;20.13;3.58;;;11.20;99.90;;;;;;5052421;28;20037;-67
2022/12/30 06:19:09;;;;;;;20.58;2.80;;;11.20;99.90;;;;;;5052722;28;20055;-67
2022/12/30 06:21:35;;;;;;;19.38;2.53;;;11.20;99.90;;;;;;5052481;28;20025;-67
2022/12/30 06:24:01;;;;;;;15.93;2.83;;;11.10;99.90;;;;;;5052311;28;20131;-67
2022/12/30 06:26:27;;;;;;;14.63;2.38;;;11.10;99.90;;;;;;5052254;28;20028;-67
2022/12/30 06:28:53;;;;;;;18.17;3.03;;;11.10;99.90;;;;;;5052021;28;20060;-68
2022/12/30 06:31:18;;;;;;;19.48;2.63;;;11.10;99.90;;;;;;5052089;28;20056;-68
2022/12/30 06:33:44;;;;;;;14.00;3.35;;;11.10;99.90;;;;;;5052239;28;20024;-68
2022/12/30 06:36:10;;;;;;;16.20;3.00;;;11.20;99.90;;;;;;5051912;28;20083;-67
2022/12/30 06:38:37;;;;;;;30.70;3.72;;;11.30;99.90;;;;;;5052114;28;20025;-68
2022/12/30 06:41:03;;;;;;;17.95;2.88;;;11.30;70.10;;;;;;5051522;28;20405;-68
2022/12/30 06:43:28;;;;;;;18.02;2.25;;;11.30;68.30;;;;;;5051881;28;20079;-68
2022/12/30 06:45:54;;;;;;;15.75;3.00;;;11.30;75.20;;;;;;5052203;28;20408;-68
2022/12/30 06:48:20;;;;;;;18.40;2.55;;;11.20;73.20;;;;;;5052020;28;20024;-68
2022/12/30 06:50:45;;;;;;;18.77;2.85;;;11.20;99.90;;;;;;5052134;28;20555;-69
2022/12/30 06:53:11;;;;;;;18.38;3.25;;;11.30;99.90;;;;;;5051761;28;20070;-69
2022/12/30 06:55:37;;;;;;;27.88;4.22;;;11.30;99.90;;;;;;5051562;28;20393;-68
2022/12/30 06:58:04;;;;;;;21.70;3.25;;;11.30;99.90;;;;;;5051990;28;20033;-68
2022/12/30 07:00:31;;;;;;;28.50;5.22;;;11.30;99.90;;;;;;5051766;28;20493;-69
2022/12/30 07:02:56;;;;;;;16.98;2.10;;;11.40;99.90;;;;;;5051521;28;20162;-69
2022/12/30 07:05:23;;;;;;;10.30;2.35;;;11.40;99.90;;;;;;5051713;28;20052;-68
2022/12/30 07:07:48;;;;;;;23.27;4.50;;;11.40;84.40;;;;;;5051449;28;20540;-69
2022/12/30 07:10:14;;;;;;;19.30;2.70;;;11.50;55.60;;;;;;5050059;28;20021;-69
2022/12/30 07:12:40;;;;;;;15.43;2.65;;;11.50;58.70;;;;;;5051498;28;20055;-71
2022/12/30 07:15:06;;;;;;;26.67;3.78;;;11.50;71.20;;;;;;5051475;28;20029;-70
2022/12/30 07:17:32;;;;;;;23.52;2.92;;;11.50;68.40;;;;;;5051366;28;20082;-68
2022/12/30 07:19:58;;;;;;;25.98;2.83;;;11.50;95.20;;;;;;5051358;28;20025;-69
2022/12/30 07:22:23;;;;;;;18.25;2.55;;;11.50;99.90;;;;;;5050964;28;20060;-68
2022/12/30 07:24:49;;;;;;;23.45;3.33;;;11.40;99.90;;;;;;5051232;28;20021;-69
2022/12/30 07:27:15;;;;;;;16.88;4.28;;;11.40;99.90;;;;;;5051242;28;20024;-68
2022/12/30 07:29:41;;;;;;;21.35;3.03;;;11.30;99.90;;;;;;5051095;28;20353;-69
2022/12/30 07:32:07;;;;;;;15.77;2.65;;;11.30;4.60;;;;;;5051108;28;20033;-70
2022/12/30 07:34:39;;;;;;;26.55;3.97;;;11.20;99.90;;;;;;5049756;28;20036;-71
2022/12/30 07:37:05;;;;;;;24.42;3.75;;;11.10;99.90;;;;;;5051027;28;20029;-72
2022/12/30 07:39:32;;;;;;;26.70;4.20;;;11.00;99.90;;;;;;5051052;28;20070;-71
2022/12/30 07:41:57;;;;;;;22.20;3.60;;;11.00;1.00;;;;;;5051046;28;20554;-73
2022/12/30 07:44:23;;;;;;;28.13;4.07;;;10.90;1.00;;;;;;5051487;28;20112;-75
2022/12/30 07:46:50;;;;;;;21.92;3.25;;;10.90;99.90;;;;;;5051896;28;20025;-77
2022/12/30 07:49:16;;;;;;;18.90;2.85;;;10.90;99.90;;;;;;5051207;28;20525;-78
2022/12/30 07:51:42;;;;;;;22.65;2.97;;;10.80;99.90;;;;;;5050130;28;20024;-76
2022/12/30 07:54:07;;;;;;;30.27;3.90;;;10.80;99.90;;;;;;5051244;28;20021;-80
2022/12/30 07:56:33;;;;;;;27.17;5.18;;;10.80;1.00;;;;;;5051141;28;20041;-81
2022/12/30 07:59:02;;;;;;;28.55;3.75;;;10.80;99.90;;;;;;5052044;28;20067;-82
2022/12/30 08:01:28;;;;;;;24.33;3.92;;;10.80;99.90;;;;;;5051013;28;20025;-80
2022/12/30 08:03:54;;;;;;;16.33;2.70;;;10.80;99.90;;;;;;5051439;28;20028;-77
2022/12/30 08:06:19;;;;;;;27.13;2.88;;;10.80;99.90;;;;;;5051140;28;20389;-76
2022/12/30 08:08:46;;;;;;;29.25;4.50;;;10.80;99.90;;;;;;5051064;28;20025;-75
2022/12/30 08:11:13;;;;;;;29.90;4.60;;;10.80;99.90;;;;;;5051197;28;20275;-75
2022/12/30 08:13:41;;;;;;;26.30;5.15;;;10.80;99.90;;;;;;5050701;28;20457;-74
2022/12/30 08:16:09;;;;;;;26.73;4.00;;;10.70;99.90;;;;;;5050782;28;20033;-75
2022/12/30 08:18:35;;;;;;;23.33;4.25;;;10.80;99.90;;;;;;5049635;28;20021;-74
2022/12/30 08:21:13;;;;;;;26.30;3.80;;;10.70;99.90;;;;;;5050843;28;20032;-75
2022/12/30 08:23:39;;;;;;;33.78;4.32;;;10.80;1.00;;;;;;5050738;28;20104;-75
2022/12/30 08:26:06;;;;;;;23.83;3.67;;;10.80;1.00;;;;;;5049237;28;20112;-77
2022/12/30 08:28:32;;;;;;;30.63;4.15;;;10.70;48.60;;;;;;5050676;28;20062;-75
2022/12/30 08:30:58;;;;;;;22.88;3.95;;;10.80;99.90;;;;;;5050829;28;20029;-76
2022/12/30 08:33:24;;;;;;;24.08;3.42;;;10.80;99.90;;;;;;5050600;28;20032;-73
2022/12/30 08:35:49;;;;;;;19.25;3.70;;;10.80;99.90;;;;;;5052978;28;20579;-73
2022/12/30 08:38:15;;;;;;;25.10;3.95;;;10.80;99.90;;;;;;5054473;28;20269;-73
2022/12/30 08:40:41;;;;;;;32.40;4.55;;;10.80;99.90;;;;;;5054042;28;20049;-74
2022/12/30 08:43:06;;;;;;;26.88;3.80;;;10.80;99.90;;;;;;5040615;28;20172;-72
2022/12/30 08:45:32;;;;;;;23.00;3.45;;;10.80;99.90;;;;;;5038401;28;20494;-72
2022/12/30 08:47:58;;;;;;;25.58;3.28;;;10.80;1.00;;;;;;5034552;28;20100;-73
2022/12/30 08:50:24;;;;;;;33.63;5.35;;;10.80;99.90;;;;;;5033683;28;20032;-73
2022/12/30 08:52:49;;;;;;;20.08;3.65;;;10.90;1.00;;;;;;5034753;28;20025;-72
2022/12/30 08:55:15;;;;;;;34.88;4.32;;;10.80;1.00;;;;;;5040275;28;20021;-73
2022/12/30 08:57:41;;;;;;;25.05;3.95;;;10.90;45.00;;;;;;5032793;28;20376;-73
2022/12/30 09:00:07;;;;;;;29.10;4.47;;;10.80;95.50;;;;;;5040053;28;20026;-75
2022/12/30 09:02:34;;;;;;;21.60;4.68;;;10.90;51.30;;;;;;5044409;28;20025;-73
2022/12/30 09:05:00;;;;;;;29.58;5.40;;;10.90;24.70;;;;;;5044263;28;20025;-73
2022/12/30 09:07:26;;;;;;;26.42;4.95;;;10.90;2.70;;;;;;5038185;28;20029;-72
2022/12/30 09:09:52;;;;;;;28.98;5.10;;;10.90;1.00;;;;;;5036032;28;20026;-72
2022/12/30 09:12:18;;;;;;;19.60;3.53;;;10.90;1.00;;;;;;5038968;28;20111;-71
2022/12/30 09:14:44;;;;;;;25.50;4.75;;;10.90;1.00;;;;;;5039076;28;20067;-70
2022/12/30 09:17:10;;;;;;;31.95;3.40;;;10.90;1.00;;;;;;5043980;28;20063;-71
2022/12/30 09:19:36;;;;;;;29.73;3.95;;;10.90;1.00;;;;;;5039395;28;20037;-71
2022/12/30 09:22:02;;;;;;;22.95;3.65;;;10.90;99.90;;;;;;5041677;28;20078;-72
2022/12/30 09:24:27;;;;;;;28.08;3.85;;;10.90;99.90;;;;;;5033915;28;20032;-72
2022/12/30 09:26:53;;;;;;;30.25;4.20;;;10.90;99.90;;;;;;5039060;28;20465;-73
2022/12/30 09:29:25;;;;;;;34.10;3.92;;;10.90;1.00;;;;;;5053858;28;20422;-72
2022/12/30 09:31:51;;;;;;;30.58;3.65;;;11.00;1.00;;;;;;5054093;28;20059;-72
2022/12/30 09:34:17;;;;;;;37.88;3.80;;;11.00;1.00;;;;;;5050437;28;20024;-72
2022/12/30 09:36:43;;;;;;;30.33;3.40;;;11.00;1.00;;;;;;5035271;28;20038;-72
2022/12/30 09:39:08;;;;;;;36.00;3.97;;;11.00;1.00;;;;;;5037631;28;20508;-72
2022/12/30 09:44:45;;;;;;;24.75;3.20;;;11.10;1.00;;;;;;5051121;28;20087;-70
2022/12/30 09:47:24;;;;;;;22.27;2.90;;;11.10;1.00;;;;;;5041009;28;20116;-71
2022/12/30 09:50:22;;;;;;;27.50;3.45;;;11.20;1.00;;;;;;5033341;28;20552;-72
2022/12/30 09:53:06;;;;;;;30.17;3.85;;;11.10;1.00;;;;;;5033124;28;20042;-71
2022/12/30 09:55:50;;;;;;;25.65;3.15;;;11.20;9.40;;;;;;5031880;28;20048;-69
2022/12/30 09:58:31;;;;;;;21.98;3.38;;;11.20;1.00;;;;;;5046930;28;20425;-69
2022/12/30 10:01:05;;;;;;;30.75;3.83;;;11.30;1.00;;;;;;5043028;28;20409;-70
2022/12/30 10:03:31;;;;;;;27.33;2.53;;;11.30;1.00;;;;;;5031312;28;20092;-69
2022/12/30 10:06:20;;;;;;;21.42;3.03;;;11.40;1.00;;;;;;5031439;28;20201;-67
2022/12/30 10:09:08;;;;;;;26.27;3.83;;;11.50;20.10;;;;;;5048093;28;20583;-69
2022/12/30 10:11:59;;;;;;;27.00;3.85;;;11.50;37.00;;;;;;5035531;28;20030;-69
2022/12/30 10:14:58;;;;;;;12.48;3.30;;;11.60;58.20;;;;;;5049704;28;20112;-69
2022/12/30 10:17:33;;;;;;;20.15;3.05;;;11.70;53.40;;;;;;5044298;28;20026;-69
2022/12/30 10:20:02;;;;;;;24.88;3.13;;;11.80;98.70;;;;;;5034549;28;20028;-68
2022/12/30 10:22:35;;;;;;;28.08;4.20;;;11.90;99.90;;;;;;5053496;28;20461;-70
2022/12/30 10:25:22;;;;;;;31.10;3.75;;;12.00;99.90;;;;;;5046282;28;20120;-69
2022/12/30 10:27:50;;;;;;;21.65;4.03;;;12.00;99.90;;;;;;5063905;28;20481;-68
2022/12/30 10:30:38;;;;;;;26.90;4.53;;;12.00;99.90;;;;;;5058020;28;20079;-69
2022/12/30 10:33:14;;;;;;;23.23;3.72;;;12.20;99.90;;;;;;5051854;28;20083;-69
2022/12/30 10:35:41;;;;;;;46.45;5.35;;;12.20;99.90;;;;;;5051809;28;20032;-69
2022/12/30 10:38:16;;;;;;;28.52;4.55;;;12.20;99.90;;;;;;5050929;28;20087;-68
2022/12/30 10:40:55;;;;;;;31.42;2.90;;;12.40;99.90;;;;;;5036942;28;20068;-68
2022/12/30 10:43:25;;;;;;;22.65;3.65;;;12.50;99.90;;;;;;5033826;28;20098;-69
2022/12/30 10:46:17;;;;;;;30.15;3.85;;;12.50;99.90;;;;;;5033811;28;20037;-69
2022/12/30 10:48:54;;;;;;;26.40;3.70;;;12.40;99.90;;;;;;5034393;28;20127;-69
2022/12/30 10:51:20;;;;;;;31.38;3.33;;;12.60;99.90;;;;;;5038593;28;20064;-69
2022/12/30 10:53:48;;;;;;;25.27;3.85;;;12.60;99.90;;;;;;5037820;28;20469;-69
2022/12/30 10:56:29;;;;;;;26.35;3.25;;;12.70;99.90;;;;;;5042331;28;20564;-69
2022/12/30 10:58:59;;;;;;;22.75;3.20;;;12.70;99.90;;;;;;5051043;28;20061;-70
2022/12/30 11:01:32;;;;;;;27.95;3.97;;;13.00;99.90;;;;;;5041551;28;20113;-70
2022/12/30 11:03:58;;;;;;;21.83;2.72;;;13.00;99.90;;;;;;5044408;28;20090;-69
2022/12/30 11:06:33;;;;;;;20.98;4.13;;;13.00;28.50;;;;;;5047843;28;20025;-69
2022/12/30 11:09:11;;;;;;;25.45;3.08;;;13.00;99.90;;;;;;5030201;28;20032;-69
2022/12/30 11:14:43;;;;;;;37.85;4.82;;;13.20;1.00;;;;;;5036155;28;20068;-69
2022/12/30 11:17:19;;;;;;;35.13;4.45;;;13.30;99.90;;;;;;5044566;28;20037;-68
2022/12/30 11:19:59;;;;;;;25.92;5.55;;;13.50;99.90;;;;;;5044414;28;20084;-70
2022/12/30 11:22:25;;;;;;;34.85;3.97;;;13.50;78.80;;;;;;5043794;28;20021;-70
2022/12/30 11:25:16;;;;;;;27.88;4.72;;;13.60;99.90;;;;;;5050611;28;20039;-70
2022/12/30 11:27:46;;;;;;;24.02;4.93;;;13.50;99.90;;;;;;5044968;28;20075;-70
2022/12/30 11:30:54;;;;;;;27.10;4.95;;;13.60;97.50;;;;;;5035245;28;20029;-68
2022/12/30 11:33:31;;;;;;;28.08;3.83;;;13.70;99.90;;;;;;5041939;28;20020;-68
2022/12/30 11:36:15;;;;;;;30.38;4.30;;;13.80;99.90;;;;;;5030771;28;20064;-68
2022/12/30 11:38:46;;;;;;;30.83;3.38;;;14.00;99.90;;;;;;5034623;28;20036;-69
2022/12/30 11:41:18;;;;;;;28.30;3.08;;;13.80;99.90;;;;;;5034912;28;20061;-70
2022/12/30 11:43:48;;;;;;;24.02;3.33;;;13.90;99.90;;;;;;5041437;28;20029;-70
2022/12/30 11:46:20;;;;;;;29.52;3.92;;;13.90;99.90;;;;;;5050669;28;20028;-69
2022/12/30 11:49:00;;;;;;;26.63;3.17;;;14.00;99.90;;;;;;5031535;28;20494;-69
2022/12/30 11:51:30;;;;;;;38.90;5.00;;;13.90;99.90;;;;;;5029985;28;20030;-69
2022/12/30 11:54:11;;;;;;;17.02;3.55;;;14.00;99.90;;;;;;5048357;28;20071;-69
2022/12/30 11:57:01;;;;;;;29.05;4.00;;;14.10;99.90;;;;;;5050510;28;20025;-70
2022/12/30 11:59:33;;;;;;;21.33;3.60;;;14.10;99.90;;;;;;5050674;28;20029;-71
2022/12/30 12:02:02;;;;;;;23.63;3.47;;;14.20;99.90;;;;;;5044450;28;20496;-70
2022/12/30 12:04:39;;;;;;;43.70;6.85;;;14.30;99.90;;;;;;5050450;28;20052;-70
2022/12/30 12:07:20;;;;;;;21.95;3.75;;;14.40;99.90;;;;;;5070575;28;20059;-69
2022/12/30 12:10:05;;;;;;;37.88;4.65;;;14.20;99.90;;;;;;5040782;28;20550;-69
2022/12/30 12:12:38;;;;;;;41.80;9.60;;;14.20;99.90;;;;;;5033038;28;20508;-72
2022/12/30 12:15:15;;;;;;;25.92;3.95;;;14.30;99.90;;;;;;5036095;28;20034;-72
2022/12/30 12:17:51;;;;;;;22.67;2.95;;;14.20;99.90;;;;;;5053596;28;20029;-73
2022/12/30 12:20:40;;;;;;;20.48;3.58;;;14.30;99.90;;;;;;5048301;28;20104;-71
2022/12/30 12:23:08;;;;;;;46.72;6.03;;;14.40;99.90;;;;;;5034477;28;20470;-72
2022/12/30 12:26:06;;;;;;;22.23;3.60;;;14.40;99.90;;;;;;5034765;28;20113;-71
2022/12/30 12:28:36;;;;;;;28.92;4.20;;;14.40;99.90;;;;;;5033791;28;20120;-69
2022/12/30 12:31:38;;;;;;;33.65;4.80;;;14.40;99.90;;;;;;5034438;28;20033;-70
2022/12/30 12:34:22;;;;;;;38.35;6.35;;;14.40;99.90;;;;;;5049671;28;20041;-71
2022/12/30 12:36:50;;;;;;;47.53;6.72;;;14.30;99.90;;;;;;5053263;28;20047;-70
2022/12/30 12:39:41;;;;;;;35.10;7.80;;;14.30;99.90;;;;;;5040030;28;20033;-69
2022/12/30 12:42:11;;;;;;;45.38;5.63;;;14.40;99.90;;;;;;5041054;28;20048;-70
2022/12/30 12:44:47;;;;;;;43.25;5.25;;;14.40;99.90;;;;;;5050566;28;20044;-70
2022/12/30 12:47:28;;;;;;;51.10;7.55;;;14.60;99.90;;;;;;5033736;28;20022;-69
2022/12/30 12:50:03;;;;;;;43.30;6.38;;;14.60;99.90;;;;;;5034357;28;20030;-70
2022/12/30 12:52:43;;;;;;;57.40;7.03;;;14.70;99.90;;;;;;5048159;28;20074;-67
2022/12/30 12:55:18;;;;;;;44.53;5.15;;;14.60;99.90;;;;;;5046078;28;20032;-70
2022/12/30 12:58:07;;;;;;;51.17;6.43;;;14.70;99.90;;;;;;5051526;28;20033;-70
2022/12/30 13:00:51;;;;;;;43.33;6.57;;;14.30;99.90;;;;;;5061196;28;20069;-69
2022/12/30 13:03:39;;;;;;;45.38;7.03;;;14.60;99.90;;;;;;5052051;28;20783;-69
2022/12/30 13:06:05;;;;;;;49.13;7.53;;;14.50;99.90;;;;;;5064348;28;20021;-70
2022/12/30 13:08:43;;;;;;;30.63;6.32;;;14.40;99.90;;;;;;5069405;28;20079;-69
2022/12/30 13:11:22;;;;;;;38.25;6.90;;;14.50;99.90;;;;;;5052526;28;20096;-70
2022/12/30 13:14:11;;;;;;;40.30;6.53;;;14.60;99.90;;;;;;5041036;28;20033;-70
2022/12/30 13:16:41;;;;;;;37.97;5.95;;;14.40;99.90;;;;;;5038477;28;20056;-70
2022/12/30 13:19:16;;;;;;;28.95;5.03;;;14.40;99.90;;;;;;5042475;28;20017;-69
2022/12/30 13:21:45;;;;;;;39.58;6.07;;;14.30;99.90;;;;;;5046995;28;20035;-71
2022/12/30 13:24:25;;;;;;;43.72;6.40;;;14.40;99.90;;;;;;5053867;28;20021;-70
2022/12/30 13:26:52;;;;;;;39.80;6.53;;;14.40;99.90;;;;;;5043831;28;20049;-70
2022/12/30 13:29:19;;;;;;;47.83;5.85;;;14.40;99.90;;;;;;5046870;28;20056;-70
2022/12/30 13:32:08;;;;;;;42.97;6.20;;;14.10;99.90;;;;;;5044867;28;20075;-70
2022/12/30 13:34:34;;;;;;;41.17;5.93;;;14.20;10.40;;;;;;5068074;28;20055;-70
2022/12/30 13:37:05;;;;;;;31.15;5.40;;;14.20;1.00;;;;;;5056330;28;20065;-70
2022/12/30 13:39:57;;;;;;;43.55;5.65;;;14.10;99.90;;;;;;5052930;28;20036;-70
2022/12/30 13:42:37;;;;;;;36.25;6.97;;;14.20;99.90;;;;;;5049902;28;20032;-70
2022/12/30 13:45:26;;;;;;;41.08;7.35;;;14.10;1.00;;;;;;5059448;28;20516;-69
2022/12/30 13:48:02;;;;;;;35.88;5.55;;;14.10;99.90;;;;;;5046635;28;20032;-69
2022/12/30 13:50:30;;;;;;;36.15;7.65;;;14.10;99.90;;;;;;5064207;28;20170;-68
2022/12/30 13:52:58;;;;;;;45.58;6.13;;;14.10;37.80;;;;;;5040735;28;20022;-69
2022/12/30 13:55:34;;;;;;;40.20;6.10;;;14.10;99.90;;;;;;5034144;28;20123;-69